createdAt,value
2018-07-30T00:00:03.805Z,18.35
2018-07-30T00:05:03.827Z,18.27
2018-07-30T00:10:03.814Z,18.19
2018-07-30T00:15:03.814Z,18.07
2018-07-30T00:20:03.839Z,17.98
2018-07-30T00:25:03.821Z,17.95
2018-07-30T00:30:03.824Z,17.97
2018-07-30T00:35:03.842Z,17.97
2018-07-30T00:40:03.833Z,17.95
2018-07-30T00:45:04.054Z,17.92
2018-07-30T00:50:03.841Z,17.85
2018-07-30T00:55:03.892Z,17.81
2018-07-30T01:00:03.837Z,17.74
2018-07-30T01:05:03.865Z,17.65
2018-07-30T01:10:03.844Z,17.56
2018-07-30T01:15:03.854Z,17.46
2018-07-30T01:20:03.862Z,17.33
2018-07-30T01:25:03.856Z,17.17
2018-07-30T01:30:03.858Z,17.08
2018-07-30T01:35:03.881Z,17.04
2018-07-30T01:40:03.861Z,17.14
2018-07-30T01:45:03.866Z,17.34
2018-07-30T01:50:03.866Z,17.59
2018-07-30T01:55:03.880Z,17.8
2018-07-30T02:00:03.873Z,17.94
2018-07-30T02:05:03.882Z,18
2018-07-30T02:10:03.883Z,17.87
2018-07-30T02:15:03.890Z,17.73
2018-07-30T02:20:03.880Z,17.53
2018-07-30T02:25:03.906Z,17.32
2018-07-30T02:30:03.892Z,17.13
2018-07-30T02:35:03.890Z,17.06
2018-07-30T02:40:03.901Z,17.04
2018-07-30T02:45:03.898Z,17.02
2018-07-30T02:50:03.905Z,17.01
2018-07-30T02:55:03.905Z,17
2018-07-30T03:00:03.910Z,16.98
2018-07-30T03:05:03.908Z,16.95
2018-07-30T03:10:03.912Z,16.84
2018-07-30T03:15:03.923Z,16.69
2018-07-30T03:20:03.916Z,16.58
2018-07-30T03:25:03.918Z,16.6
2018-07-30T03:30:03.928Z,16.79
2018-07-30T03:35:03.921Z,16.9
2018-07-30T03:40:03.925Z,16.95
2018-07-30T03:45:03.944Z,17.01
2018-07-30T03:50:03.932Z,16.95
2018-07-30T03:55:03.934Z,16.82
2018-07-30T04:00:04.041Z,16.73
2018-07-30T04:05:03.940Z,16.71
2018-07-30T04:10:03.938Z,16.82
2018-07-30T04:15:03.967Z,16.98
2018-07-30T04:20:03.944Z,17.25
2018-07-30T04:25:03.957Z,17.48
2018-07-30T04:30:03.967Z,17.62
2018-07-30T04:35:03.957Z,17.67
2018-07-30T04:40:03.955Z,17.75
2018-07-30T04:45:03.977Z,17.93
2018-07-30T04:50:03.964Z,18.11
2018-07-30T04:55:03.966Z,18.15
2018-07-30T05:00:03.991Z,18.14
2018-07-30T05:05:03.978Z,18.22
2018-07-30T05:10:03.972Z,18.32
2018-07-30T05:15:03.987Z,18.41
2018-07-30T05:20:03.981Z,18.62
2018-07-30T05:25:03.982Z,19.27
2018-07-30T05:30:03.995Z,19.88
2018-07-30T05:35:03.993Z,20.34
2018-07-30T05:40:03.989Z,20.27
2018-07-30T05:45:03.999Z,20.04
2018-07-30T05:50:04.034Z,19.84
2018-07-30T05:55:03.998Z,19.71
2018-07-30T06:00:04.024Z,19.72
2018-07-30T06:05:04.015Z,19.74
2018-07-30T06:10:04.008Z,19.8
2018-07-30T06:15:04.025Z,20.03
2018-07-30T06:20:04.011Z,20.42
2018-07-30T06:25:04.015Z,20.68
2018-07-30T06:30:04.028Z,20.91
2018-07-30T06:35:04.028Z,21.15
2018-07-30T06:40:04.021Z,21.36
2018-07-30T06:45:04.025Z,21.59
2018-07-30T06:50:04.044Z,21.95
2018-07-30T06:55:04.030Z,22.43
2018-07-30T07:00:04.034Z,22.79
2018-07-30T07:05:04.036Z,22.65
2018-07-30T07:10:04.043Z,23.1
2018-07-30T07:15:04.051Z,23.8
2018-07-30T07:20:04.050Z,25.29
2018-07-30T07:25:04.048Z,26.23
2018-07-30T07:30:04.051Z,26.3
2018-07-30T07:35:04.163Z,26.45
2018-07-30T07:40:04.055Z,27.79
2018-07-30T07:45:04.210Z,28.79
2018-07-30T07:50:04.213Z,29.62
2018-07-30T07:55:04.067Z,30.03
2018-07-30T08:00:04.066Z,30.46
2018-07-30T08:05:04.186Z,30.75
2018-07-30T08:10:04.070Z,31.04
2018-07-30T08:15:04.072Z,31.39
2018-07-30T08:20:04.097Z,31.55
2018-07-30T08:25:04.075Z,32.1
2018-07-30T08:30:04.083Z,32.63
2018-07-30T08:35:04.094Z,32.73
2018-07-30T08:40:04.087Z,33.02
2018-07-30T08:45:04.088Z,33.04
2018-07-30T08:50:04.229Z,33.26
2018-07-30T08:55:04.092Z,33.8
2018-07-30T09:00:04.098Z,34.49
2018-07-30T09:05:04.104Z,35.44
2018-07-30T09:10:04.127Z,35.9
2018-07-30T09:15:04.251Z,36.4
2018-07-30T09:20:04.112Z,36.71
2018-07-30T09:25:04.133Z,36.38
2018-07-30T09:30:04.112Z,36.87
2018-07-30T09:35:04.115Z,37.44
2018-07-30T09:40:04.138Z,38.12
2018-07-30T09:45:04.122Z,37.31
2018-07-30T09:50:04.122Z,37.67
2018-07-30T09:55:04.131Z,38.37
2018-07-30T10:00:04.132Z,38.84
2018-07-30T10:05:04.132Z,39.34
2018-07-30T10:10:04.149Z,39.38
2018-07-30T10:15:04.141Z,39
2018-07-30T10:20:04.149Z,38.65
2018-07-30T10:25:04.151Z,38.12
2018-07-30T10:30:04.149Z,36.47
2018-07-30T10:35:04.146Z,35.27
2018-07-30T10:40:04.165Z,34.15
2018-07-30T10:45:04.162Z,33.25
2018-07-30T10:50:04.162Z,32.9
2018-07-30T10:55:04.269Z,32.78
2018-07-30T11:00:04.248Z,33.05
2018-07-30T11:05:04.171Z,33.28
2018-07-30T11:10:04.174Z,34.05
2018-07-30T11:15:04.180Z,34.69
2018-07-30T11:20:04.187Z,35.67
2018-07-30T11:25:04.174Z,36.27
2018-07-30T11:30:04.196Z,37.25
2018-07-30T11:35:04.185Z,37.5
2018-07-30T11:40:04.183Z,37.2
2018-07-30T11:45:04.189Z,37.43
2018-07-30T11:50:04.239Z,39.11
2018-07-30T11:55:04.190Z,40.68
2018-07-30T12:00:04.194Z,42.32
2018-07-30T12:05:04.206Z,44.64
2018-07-30T12:10:04.227Z,45.7
2018-07-30T12:15:04.208Z,45.51
2018-07-30T12:20:04.203Z,44.89
2018-07-30T12:25:04.215Z,45
2018-07-30T12:30:04.240Z,45.66
2018-07-30T12:35:04.212Z,43.85
2018-07-30T12:40:04.234Z,44.9
2018-07-30T12:45:04.306Z,43.23
2018-07-30T12:50:04.223Z,45.75
2018-07-30T12:55:04.231Z,46.37
2018-07-30T13:00:04.235Z,46.73
2018-07-30T13:05:04.231Z,46.32
2018-07-30T13:10:04.269Z,47.1
2018-07-30T13:15:04.237Z,47.41
2018-07-30T13:20:04.242Z,47.14
2018-07-30T13:25:04.247Z,47.31
2018-07-30T13:30:04.246Z,44.65
2018-07-30T13:35:04.245Z,41.35
2018-07-30T13:40:04.245Z,39.37
2018-07-30T13:45:04.252Z,38.33
2018-07-30T13:50:04.252Z,37.76
2018-07-30T13:55:04.259Z,37.74
2018-07-30T14:00:04.263Z,37.87
2018-07-30T14:05:04.259Z,37.58
2018-07-30T14:10:04.268Z,37.32
2018-07-30T14:15:04.270Z,36.89
2018-07-30T14:20:04.270Z,37.03
2018-07-30T14:25:04.273Z,38.4
2018-07-30T14:30:04.281Z,40.18
2018-07-30T14:35:04.280Z,42.34
2018-07-30T14:40:04.285Z,44.37
2018-07-30T14:45:04.284Z,44.33
2018-07-30T14:50:04.287Z,42.49
2018-07-30T14:55:04.289Z,42.06
2018-07-30T15:00:04.296Z,44.02
2018-07-30T15:05:04.295Z,46.16
2018-07-30T15:10:04.293Z,45.68
2018-07-30T15:15:04.298Z,42.61
2018-07-30T15:20:04.298Z,40.4
2018-07-30T15:25:04.306Z,38.73
2018-07-30T15:30:04.315Z,39.11
2018-07-30T15:35:04.306Z,39.5
2018-07-30T15:40:04.314Z,39.47
2018-07-30T15:45:04.328Z,42.03
2018-07-30T15:50:04.324Z,40.82
2018-07-30T15:55:04.329Z,38.52
2018-07-30T16:05:04.328Z,36.34
2018-07-30T16:10:04.328Z,38.77
2018-07-30T16:15:04.330Z,40.62
2018-07-30T16:20:04.336Z,39.93
2018-07-30T16:25:04.337Z,40.31
2018-07-30T16:30:04.340Z,39.08
2018-07-30T16:35:04.340Z,37.19
2018-07-30T16:40:04.349Z,35.62
2018-07-30T16:45:04.346Z,34.53
2018-07-30T16:50:04.350Z,33.79
2018-07-30T16:55:04.400Z,33.35
2018-07-30T17:00:04.350Z,33.18
2018-07-30T17:05:04.355Z,32.98
2018-07-30T17:10:04.365Z,32.91
2018-07-30T17:15:04.362Z,32.61
2018-07-30T17:20:04.378Z,32.23
2018-07-30T17:25:04.381Z,31.86
2018-07-30T17:30:04.441Z,31.56
2018-07-30T17:35:04.373Z,31.52
2018-07-30T17:40:04.375Z,31.44
2018-07-30T17:45:04.395Z,31.44
2018-07-30T17:50:04.386Z,31.31
2018-07-30T17:55:04.383Z,31.1
2018-07-30T18:00:04.392Z,30.91
2018-07-30T18:05:04.391Z,30.68
2018-07-30T18:10:04.390Z,30.61
2018-07-30T18:15:04.412Z,30.35
2018-07-30T18:20:03.397Z,29.89
2018-07-30T18:25:03.396Z,29.16
2018-07-30T18:30:03.417Z,28.28
2018-07-30T18:35:03.422Z,27.79
2018-07-30T18:40:03.407Z,27.44
2018-07-30T18:45:03.407Z,26.85
2018-07-30T18:50:03.422Z,26.4
2018-07-30T18:55:03.419Z,26.05
2018-07-30T19:00:03.454Z,25.72
2018-07-30T19:05:03.442Z,25.36
2018-07-30T19:10:03.424Z,25.05
2018-07-30T19:15:03.430Z,24.75
2018-07-30T19:20:03.430Z,24.51
2018-07-30T19:25:03.453Z,24.28
2018-07-30T19:30:03.431Z,24.12
2018-07-30T19:35:03.438Z,23.96
2018-07-30T19:40:03.445Z,23.75
2018-07-30T19:45:03.443Z,23.56
2018-07-30T19:50:03.441Z,23.4
2018-07-30T19:55:03.468Z,23.26
2018-07-30T20:00:03.454Z,23.12
2018-07-30T20:05:03.455Z,23.01
2018-07-30T20:10:03.455Z,22.9
2018-07-30T20:15:03.461Z,22.82
2018-07-30T20:20:03.468Z,22.75
2018-07-30T20:25:03.485Z,22.69
2018-07-30T20:30:03.486Z,22.62
2018-07-30T20:35:03.469Z,22.54
2018-07-30T20:40:03.472Z,22.44
2018-07-30T20:45:03.571Z,22.33
2018-07-30T20:50:03.476Z,22.2
2018-07-30T20:55:03.477Z,22.13
2018-07-30T21:00:03.485Z,22.03
2018-07-30T21:05:03.493Z,21.97
2018-07-30T21:10:03.487Z,21.92
2018-07-30T21:15:03.489Z,21.87
2018-07-30T21:20:03.509Z,21.87
2018-07-30T21:25:03.494Z,21.85
2018-07-30T21:30:03.495Z,21.76
2018-07-30T21:35:03.505Z,21.68
2018-07-30T21:40:03.508Z,21.59
2018-07-30T21:45:03.514Z,21.46
2018-07-30T21:50:03.513Z,21.31
2018-07-30T21:55:03.517Z,21.14
2018-07-30T22:00:03.512Z,21.06
2018-07-30T22:05:03.521Z,21.07
2018-07-30T22:10:03.523Z,21
2018-07-30T22:15:03.529Z,20.93
2018-07-30T22:20:03.545Z,20.78
2018-07-30T22:25:03.529Z,20.62
2018-07-30T22:30:03.532Z,20.47
2018-07-30T22:35:03.542Z,20.3
2018-07-30T22:40:03.535Z,20.14
2018-07-30T22:45:03.537Z,20.03
2018-07-30T22:50:03.545Z,20.07
2018-07-30T22:55:03.540Z,20.21
2018-07-30T23:00:03.548Z,20.27
2018-07-30T23:05:03.555Z,20.27
2018-07-30T23:10:03.562Z,20.19
2018-07-30T23:15:03.558Z,20.15
2018-07-30T23:20:03.564Z,20.11
2018-07-30T23:25:03.568Z,20.13
2018-07-30T23:30:03.566Z,20.04
2018-07-30T23:35:03.563Z,19.98
2018-07-30T23:40:03.574Z,19.75
2018-07-30T23:45:03.573Z,19.62
2018-07-30T23:50:03.578Z,19.52
2018-07-30T23:55:03.695Z,19.39
